createdAt,value
2023-04-18T00:00:39.935Z,100203.28
2023-04-18T00:03:41.968Z,100208.41
2023-04-18T00:06:43.967Z,100215.38
2023-04-18T00:09:45.838Z,100204.66
2023-04-18T00:12:47.844Z,100217.59
2023-04-18T00:15:49.649Z,100207.97
2023-04-18T00:18:52.735Z,100198.44
2023-04-18T00:21:54.547Z,100163.28
2023-04-18T00:24:57.596Z,100211.84
2023-04-18T00:27:59.435Z,100192.06
2023-04-18T00:31:01.276Z,100200.69
2023-04-18T00:34:03.139Z,100181.88
2023-04-18T00:37:04.947Z,100206.88
2023-04-18T00:40:07.357Z,100172.47
2023-04-18T00:43:09.214Z,100200.09
2023-04-18T00:46:11.241Z,100192.66
2023-04-18T00:49:13.120Z,100190.00
2023-04-18T00:52:16.491Z,100204.69
2023-04-18T00:55:18.870Z,100197.66
2023-04-18T00:58:20.831Z,100201.22
2023-04-18T01:01:23.460Z,100184.56
2023-04-18T01:04:25.457Z,100181.34
2023-04-18T01:07:28.203Z,100188.06
2023-04-18T01:10:32.098Z,100109.88
2023-04-18T01:13:34.022Z,100183.78
2023-04-18T01:16:38.962Z,100164.81
2023-04-18T01:19:42.531Z,100185.56
2023-04-18T01:22:44.651Z,100165.06
2023-04-18T01:25:49.336Z,100175.56
2023-04-18T01:28:54.067Z,100155.81
2023-04-18T01:31:57.333Z,100060.38
2023-04-18T01:34:59.500Z,100189.81
2023-04-18T01:38:01.978Z,100146.56
2023-04-18T01:41:07.441Z,100185.63
2023-04-18T01:44:09.264Z,100188.16
2023-04-18T01:47:11.041Z,100182.66
2023-04-18T01:50:13.013Z,100194.53
2023-04-18T01:53:15.327Z,100190.22
2023-04-18T01:56:19.201Z,100135.94
2023-04-18T01:59:22.467Z,100175.72
2023-04-18T02:02:24.736Z,100171.34
2023-04-18T02:05:29.771Z,100189.50
2023-04-18T02:08:35.562Z,100174.91
2023-04-18T02:11:40.712Z,100174.06
2023-04-18T02:14:42.571Z,100167.25
2023-04-18T02:17:44.921Z,100163.75
2023-04-18T02:20:47.433Z,100172.38
2023-04-18T02:23:49.426Z,100165.56
2023-04-18T02:26:51.210Z,100147.53
2023-04-18T02:29:53.808Z,100163.84
2023-04-18T02:32:59.008Z,100168.97
2023-04-18T02:36:01.875Z,100163.03
2023-04-18T02:39:03.855Z,100166.53
2023-04-18T02:42:05.747Z,100166.50
2023-04-18T02:45:08.950Z,100168.84
2023-04-18T02:48:11.038Z,100171.25
2023-04-18T02:51:13.104Z,100160.88
2023-04-18T02:54:15.188Z,100165.56
2023-04-18T02:57:29.640Z,100170.44
2023-04-18T03:00:46.333Z,100107.38
2023-04-18T03:04:08.023Z,100141.69
2023-04-18T03:07:14.152Z,100184.63
2023-04-18T03:10:16.770Z,100158.66
2023-04-18T03:13:18.721Z,100170.66
2023-04-18T03:16:20.983Z,100178.38
2023-04-18T03:19:23.807Z,100161.09
2023-04-18T03:22:27.702Z,100175.91
2023-04-18T03:25:34.422Z,100165.19
2023-04-18T03:28:37.112Z,100053.78
2023-04-18T03:31:39.567Z,100139.00
2023-04-18T03:34:42.840Z,100175.41
2023-04-18T03:37:46.484Z,100190.09
2023-04-18T03:40:55.365Z,100170.19
2023-04-18T03:44:05.110Z,100164.84
2023-04-18T03:47:10.377Z,100182.22
2023-04-18T03:50:15.891Z,100177.84
2023-04-18T03:53:19.762Z,100144.09
2023-04-18T03:56:23.396Z,100181.00
2023-04-18T03:59:27.675Z,100181.84
2023-04-18T04:02:30.575Z,100178.44
2023-04-18T04:05:32.954Z,100193.81
2023-04-18T04:08:34.809Z,100192.91
2023-04-18T04:11:37.560Z,100131.59
2023-04-18T04:14:42.091Z,100198.94
2023-04-18T04:17:44.810Z,100188.47
2023-04-18T04:20:48.090Z,100207.34
2023-04-18T04:24:07.039Z,100202.06
2023-04-18T04:27:18.850Z,100209.84
2023-04-18T04:30:21.595Z,100217.00
2023-04-18T04:33:25.660Z,100217.31
2023-04-18T04:36:30.165Z,100223.50
2023-04-18T04:39:34.063Z,100238.16
2023-04-18T04:42:54.197Z,100226.34
2023-04-18T04:46:07.798Z,100199.66
2023-04-18T04:49:09.673Z,100246.22
2023-04-18T04:52:11.698Z,100252.06
2023-04-18T04:55:13.556Z,100249.38
2023-04-18T04:58:17.444Z,100233.88
2023-04-18T05:01:35.600Z,100263.88
2023-04-18T05:04:37.559Z,100252.25
2023-04-18T05:07:39.844Z,100248.94
2023-04-18T05:10:43.145Z,100264.69
2023-04-18T05:13:46.241Z,100248.09
2023-04-18T05:16:48.400Z,100273.00
2023-04-18T05:19:51.084Z,100249.81
2023-04-18T05:22:52.909Z,100275.13
2023-04-18T05:25:54.700Z,100257.75
2023-04-18T05:28:56.489Z,100261.81
2023-04-18T05:32:03.683Z,100261.03
2023-04-18T05:35:07.094Z,100260.72
2023-04-18T05:38:08.862Z,100261.22
2023-04-18T05:41:10.643Z,100273.66
2023-04-18T05:44:13.470Z,100261.00
2023-04-18T05:47:15.634Z,100266.78
2023-04-18T05:50:20.158Z,100264.94
2023-04-18T05:53:21.990Z,100277.63
2023-04-18T05:56:23.873Z,100298.94
2023-04-18T05:59:27.001Z,100287.66
2023-04-18T06:02:28.872Z,100286.16
2023-04-18T06:05:31.344Z,100268.09
2023-04-18T06:08:33.321Z,100285.31
2023-04-18T06:11:35.815Z,100296.16
2023-04-18T06:14:37.555Z,100280.25
2023-04-18T06:17:39.697Z,100286.91
2023-04-18T06:20:42.205Z,100278.72
2023-04-18T06:23:44.024Z,100287.28
2023-04-18T06:26:45.821Z,100294.41
2023-04-18T06:29:47.680Z,100297.00
2023-04-18T06:32:49.640Z,100304.38
2023-04-18T06:35:51.741Z,100306.78
2023-04-18T06:38:53.572Z,100265.06
2023-04-18T06:41:55.534Z,100316.34
2023-04-18T06:45:06.700Z,100298.50
2023-04-18T06:48:10.788Z,100295.03
2023-04-18T06:51:12.854Z,100299.91
2023-04-18T06:54:14.798Z,100275.09
2023-04-18T06:57:16.738Z,100323.28
2023-04-18T07:00:18.769Z,100319.53
2023-04-18T07:03:20.768Z,100274.78
2023-04-18T07:06:22.717Z,100324.00
2023-04-18T07:09:24.603Z,100338.03
2023-04-18T07:12:27.235Z,100351.22
2023-04-18T07:15:29.059Z,100339.50
2023-04-18T07:18:38.066Z,100350.22
2023-04-18T07:21:42.658Z,100352.13
2023-04-18T07:24:44.515Z,100344.13
2023-04-18T07:27:46.471Z,100357.38
2023-04-18T07:30:48.403Z,100355.84
2023-04-18T07:33:50.312Z,100352.81
2023-04-18T07:36:52.115Z,100370.50
2023-04-18T07:39:53.911Z,100322.00
2023-04-18T07:42:55.818Z,100362.50
2023-04-18T07:45:57.710Z,100365.69
2023-04-18T07:49:00.131Z,100363.13
2023-04-18T07:52:02.172Z,100356.81
2023-04-18T07:55:04.222Z,100364.97
2023-04-18T07:58:06.004Z,100365.44
2023-04-18T08:01:09.009Z,100360.72
2023-04-18T08:04:12.235Z,100358.09
2023-04-18T08:07:14.051Z,100344.25
2023-04-18T08:10:16.083Z,100362.66
2023-04-18T08:13:19.201Z,100367.09
2023-04-18T08:16:21.277Z,100350.31
2023-04-18T08:19:24.347Z,100361.75
2023-04-18T08:22:26.106Z,100356.63
2023-04-18T08:25:30.019Z,100368.56
2023-04-18T08:28:34.778Z,100340.22
2023-04-18T08:31:36.698Z,100349.91
2023-04-18T08:34:38.527Z,100349.19
2023-04-18T08:37:40.445Z,100363.59
2023-04-18T08:40:43.516Z,100356.44
2023-04-18T08:43:48.714Z,100362.72
2023-04-18T08:46:50.884Z,100354.22
2023-04-18T08:49:53.770Z,100303.91
2023-04-18T08:52:56.282Z,100360.91
2023-04-18T08:56:00.330Z,100335.31
2023-04-18T08:59:02.835Z,100349.09
2023-04-18T09:02:08.828Z,100351.75
2023-04-18T09:05:21.749Z,100339.81
2023-04-18T09:08:27.370Z,100334.63
2023-04-18T09:11:34.607Z,100321.84
2023-04-18T09:14:37.417Z,100332.22
2023-04-18T09:17:45.617Z,100322.66
2023-04-18T09:20:49.862Z,100331.84
2023-04-18T09:24:16.231Z,100315.75
2023-04-18T09:27:18.883Z,100304.25
2023-04-18T09:30:30.873Z,100323.91
2023-04-18T09:33:33.070Z,100330.03
2023-04-18T09:36:37.371Z,100308.81
2023-04-18T09:39:44.110Z,100320.19
2023-04-18T09:42:46.794Z,100319.28
2023-04-18T09:45:49.111Z,100301.13
2023-04-18T09:48:51.054Z,100305.38
2023-04-18T09:51:54.722Z,100290.81
2023-04-18T09:54:59.941Z,100295.78
2023-04-18T09:58:04.226Z,100292.59
2023-04-18T10:01:06.405Z,100297.56
2023-04-18T10:04:09.757Z,100301.66
2023-04-18T10:07:11.687Z,100285.50
2023-04-18T10:10:13.986Z,100271.81
2023-04-18T10:13:18.853Z,100266.47
2023-04-18T10:16:21.154Z,100287.00
2023-04-18T10:19:28.290Z,100271.81
2023-04-18T10:22:33.521Z,100273.94
2023-04-18T10:25:35.306Z,100272.75
2023-04-18T10:28:57.291Z,100280.38
2023-04-18T10:32:06.875Z,100264.41
2023-04-18T10:35:11.673Z,100281.38
2023-04-18T10:38:17.400Z,100267.16
2023-04-18T10:41:22.063Z,100252.59
2023-04-18T10:44:27.121Z,100242.44
2023-04-18T10:47:29.122Z,100263.28
2023-04-18T10:50:31.188Z,100253.22
2023-04-18T10:53:33.176Z,100254.59
2023-04-18T10:56:35.229Z,100259.09
2023-04-18T10:59:43.625Z,100251.66
2023-04-18T11:02:51.586Z,100255.84
2023-04-18T11:06:01.714Z,100246.75
2023-04-18T11:09:14.084Z,100260.41
2023-04-18T11:12:16.373Z,100229.84
2023-04-18T11:15:23.595Z,100241.13
2023-04-18T11:18:39.066Z,100243.09
2023-04-18T11:21:41.089Z,100244.19
2023-04-18T11:24:43.146Z,100255.63
2023-04-18T11:27:46.675Z,100242.63
2023-04-18T11:30:48.715Z,100251.84
2023-04-18T11:33:51.810Z,100275.91
2023-04-18T11:36:53.625Z,100258.59
2023-04-18T11:39:55.915Z,100278.03
2023-04-18T11:43:01.813Z,100274.94
2023-04-18T11:46:03.675Z,100260.94
2023-04-18T11:49:05.624Z,100270.41
2023-04-18T11:52:16.501Z,100261.59
2023-04-18T11:55:24.725Z,100272.00
2023-04-18T11:58:33.896Z,100279.41
2023-04-18T12:01:35.770Z,100276.25
2023-04-18T12:05:00.253Z,100267.78
2023-04-18T12:08:13.321Z,100305.19
2023-04-18T12:11:23.328Z,100291.19
2023-04-18T12:14:25.648Z,100289.09
2023-04-18T12:17:28.752Z,100291.38
2023-04-18T12:20:58.631Z,100309.72
2023-04-18T12:24:15.411Z,100303.28
2023-04-18T12:27:17.337Z,100296.69
2023-04-18T12:30:21.493Z,100277.75
2023-04-18T12:33:23.638Z,100287.03
2023-04-18T12:36:28.479Z,100281.75
2023-04-18T12:39:30.274Z,100292.97
2023-04-18T12:42:33.658Z,100264.66
2023-04-18T12:45:36.106Z,100288.28
2023-04-18T12:48:37.842Z,100289.63
2023-04-18T12:51:40.669Z,100294.75
2023-04-18T12:54:42.461Z,100300.41
2023-04-18T12:57:44.680Z,100284.53
2023-04-18T13:00:47.573Z,100276.75
2023-04-18T13:03:59.926Z,100290.66
2023-04-18T13:07:07.423Z,100275.25
2023-04-18T13:10:18.709Z,100277.84
2023-04-18T13:13:20.531Z,100267.03
2023-04-18T13:16:22.696Z,100269.72
2023-04-18T13:19:24.676Z,100274.38
2023-04-18T13:22:28.614Z,100279.31
2023-04-18T13:25:30.612Z,100272.13
2023-04-18T13:28:32.694Z,100263.50
2023-04-18T13:31:34.408Z,100276.22
2023-04-18T13:34:42.794Z,100222.97
2023-04-18T13:37:44.602Z,100272.34
2023-04-18T13:40:46.451Z,100265.06
2023-04-18T13:43:48.247Z,100259.44
2023-04-18T13:46:50.025Z,100230.03
2023-04-18T13:49:52.049Z,100266.50
2023-04-18T13:52:54.785Z,100247.69
2023-04-18T13:55:57.006Z,100267.56
2023-04-18T13:58:58.861Z,100269.84
2023-04-18T14:02:00.961Z,100233.91
2023-04-18T14:05:03.033Z,100244.66
2023-04-18T14:08:05.419Z,100275.34
2023-04-18T14:11:07.372Z,100263.00
2023-04-18T14:14:09.287Z,100265.94
2023-04-18T14:17:11.399Z,100269.97
2023-04-18T14:20:15.635Z,100275.34
2023-04-18T14:23:17.584Z,100262.19
2023-04-18T14:26:19.992Z,100270.34
2023-04-18T14:29:21.719Z,100266.91
2023-04-18T14:32:23.694Z,100274.09
2023-04-18T14:35:25.515Z,100270.66
2023-04-18T14:38:27.377Z,100276.22
2023-04-18T14:41:29.360Z,100274.00
2023-04-18T14:44:31.486Z,100258.81
2023-04-18T14:47:34.740Z,100254.53
2023-04-18T14:50:38.562Z,100266.13
2023-04-18T14:53:40.274Z,100258.97
2023-04-18T14:56:42.086Z,100261.19
2023-04-18T14:59:43.859Z,100263.38
2023-04-18T15:02:45.880Z,100259.00
2023-04-18T15:05:49.166Z,100266.81
2023-04-18T15:08:52.697Z,100260.13
2023-04-18T15:11:54.577Z,100253.53
2023-04-18T15:14:56.381Z,100226.34
2023-04-18T15:17:58.164Z,100265.38
2023-04-18T15:21:00.245Z,100217.69
2023-04-18T15:24:02.058Z,100249.72
2023-04-18T15:27:04.027Z,100241.81
2023-04-18T15:30:07.895Z,100231.06
2023-04-18T15:33:11.173Z,100248.88
2023-04-18T15:36:13.018Z,100239.31
2023-04-18T15:39:15.142Z,100257.53
2023-04-18T15:42:16.944Z,100252.69
2023-04-18T15:45:18.964Z,100257.31
2023-04-18T15:48:20.842Z,100230.97
2023-04-18T15:51:27.535Z,100254.72
2023-04-18T15:54:29.305Z,100250.59
2023-04-18T15:57:32.109Z,100254.97
2023-04-18T16:00:33.929Z,100245.75
2023-04-18T16:03:36.251Z,100266.78
2023-04-18T16:06:38.184Z,100261.69
2023-04-18T16:09:39.925Z,100232.59
2023-04-18T16:12:41.840Z,100242.91
2023-04-18T16:15:43.693Z,100252.00
2023-04-18T16:18:45.780Z,100236.06
2023-04-18T16:21:48.954Z,100246.81
2023-04-18T16:24:50.898Z,100255.78
2023-04-18T16:27:52.813Z,100245.03
2023-04-18T16:30:55.758Z,100251.03
2023-04-18T16:33:57.810Z,100253.91
2023-04-18T16:37:00.165Z,100263.84
2023-04-18T16:40:05.173Z,100246.81
2023-04-18T16:43:06.949Z,100250.41
2023-04-18T16:46:08.762Z,100282.19
2023-04-18T16:49:10.642Z,100275.97
2023-04-18T16:52:19.666Z,100266.63
2023-04-18T16:55:21.605Z,100266.00
2023-04-18T16:58:23.783Z,100274.13
2023-04-18T17:01:25.690Z,100278.44
2023-04-18T17:04:28.789Z,100285.16
2023-04-18T17:07:30.901Z,100289.75
2023-04-18T17:10:33.003Z,100282.75
2023-04-18T17:13:36.035Z,100265.88
2023-04-18T17:16:39.567Z,100265.28
2023-04-18T17:19:41.608Z,100245.16
2023-04-18T17:22:43.830Z,100284.09
2023-04-18T17:25:46.269Z,100279.44
2023-04-18T17:28:48.022Z,100259.19
2023-04-18T17:31:49.887Z,100289.22
2023-04-18T17:34:51.759Z,100283.25
2023-04-18T17:37:53.521Z,100292.78
2023-04-18T17:40:59.931Z,100302.47
2023-04-18T17:44:01.706Z,100274.66
2023-04-18T17:47:03.602Z,100285.78
2023-04-18T17:50:06.925Z,100291.88
2023-04-18T17:53:08.652Z,100264.47
2023-04-18T17:56:10.451Z,100281.97
2023-04-18T17:59:12.470Z,100288.00
2023-04-18T18:02:14.717Z,100292.06
2023-04-18T18:05:16.754Z,100286.25
2023-04-18T18:08:18.573Z,100266.44
2023-04-18T18:11:21.458Z,100284.94
2023-04-18T18:14:23.406Z,100291.47
2023-04-18T18:17:25.172Z,100278.47
2023-04-18T18:20:27.564Z,100286.31
2023-04-18T18:23:29.432Z,100293.59
2023-04-18T18:26:31.211Z,100289.22
2023-04-18T18:29:33.109Z,100293.66
2023-04-18T18:32:34.890Z,100273.88
2023-04-18T18:35:36.748Z,100295.69
2023-04-18T18:38:38.464Z,100243.25
2023-04-18T18:41:40.516Z,100284.16
2023-04-18T18:44:42.247Z,100267.81
2023-04-18T18:47:44.020Z,100286.63
2023-04-18T18:50:45.725Z,100291.09
2023-04-18T18:53:47.456Z,100286.09
2023-04-18T18:56:49.166Z,100274.97
2023-04-18T18:59:50.900Z,100287.00
2023-04-18T19:02:52.982Z,100291.72
2023-04-18T19:05:58.832Z,100295.28
2023-04-18T19:09:00.797Z,100287.41
2023-04-18T19:12:06.215Z,100282.19
2023-04-18T19:15:08.863Z,100283.84
2023-04-18T19:18:10.960Z,100279.75
2023-04-18T19:21:15.967Z,100285.84
2023-04-18T19:24:18.079Z,100264.97
2023-04-18T19:27:19.810Z,100283.97
2023-04-18T19:30:21.698Z,100275.75
2023-04-18T19:33:24.590Z,100270.47
2023-04-18T19:36:26.760Z,100282.84
2023-04-18T19:39:28.811Z,100254.31
2023-04-18T19:42:30.914Z,100271.34
2023-04-18T19:45:32.790Z,100244.66
2023-04-18T19:48:37.668Z,100275.88
2023-04-18T19:51:40.857Z,100255.19
2023-04-18T19:54:42.601Z,100263.84
2023-04-18T19:57:44.375Z,100280.28
2023-04-18T20:00:46.383Z,100276.16
2023-04-18T20:03:48.342Z,100262.59
2023-04-18T20:06:50.357Z,100269.66
2023-04-18T20:09:52.700Z,100271.63
2023-04-18T20:12:54.462Z,100249.34
2023-04-18T20:15:56.288Z,100264.03
2023-04-18T20:18:58.097Z,100260.69
2023-04-18T20:22:01.345Z,100248.44
2023-04-18T20:25:05.069Z,100257.84
2023-04-18T20:28:07.000Z,100251.19
2023-04-18T20:31:08.810Z,100211.84
2023-04-18T20:34:10.627Z,100265.22
2023-04-18T20:37:16.114Z,100262.63
2023-04-18T20:40:18.866Z,100260.88
2023-04-18T20:43:20.931Z,100255.44
2023-04-18T20:46:22.669Z,100254.97
2023-04-18T20:49:24.462Z,100240.13
2023-04-18T20:52:26.241Z,100247.28
2023-04-18T20:55:28.003Z,100234.97
2023-04-18T20:58:30.099Z,100254.28
2023-04-18T21:01:31.902Z,100227.59
2023-04-18T21:04:33.945Z,100245.06
2023-04-18T21:07:36.306Z,100217.50
2023-04-18T21:10:38.300Z,100242.59
2023-04-18T21:13:40.091Z,100256.31
2023-04-18T21:16:42.014Z,100244.31
2023-04-18T21:19:47.441Z,100260.69
2023-04-18T21:22:49.199Z,100181.34
2023-04-18T21:25:50.914Z,100242.16
2023-04-18T21:29:04.905Z,100256.88
2023-04-18T21:32:06.657Z,100237.13
2023-04-18T21:35:08.805Z,100253.47
2023-04-18T21:38:10.712Z,100249.25
2023-04-18T21:41:16.996Z,100233.00
2023-04-18T21:44:18.946Z,100243.91
2023-04-18T21:47:20.855Z,100242.22
2023-04-18T21:50:22.779Z,100239.94
2023-04-18T21:53:24.647Z,100235.72
2023-04-18T21:56:26.844Z,100238.53
2023-04-18T21:59:28.960Z,100205.03
2023-04-18T22:02:30.870Z,100219.84
2023-04-18T22:05:33.487Z,100216.63
2023-04-18T22:08:35.429Z,100228.94
2023-04-18T22:11:37.325Z,100232.25
2023-04-18T22:14:40.421Z,100188.66
2023-04-18T22:17:42.479Z,100226.09
2023-04-18T22:20:45.309Z,100216.75
2023-04-18T22:23:47.252Z,100206.28
2023-04-18T22:26:49.040Z,100212.69
2023-04-18T22:29:51.104Z,100211.06
2023-04-18T22:32:52.898Z,100208.91
2023-04-18T22:35:55.668Z,100193.69
2023-04-18T22:38:57.646Z,100163.47
2023-04-18T22:41:59.383Z,100200.81
2023-04-18T22:45:01.504Z,100199.44
2023-04-18T22:48:03.626Z,100209.94
2023-04-18T22:51:06.230Z,100171.16
2023-04-18T22:54:07.905Z,100189.06
2023-04-18T22:57:09.685Z,100186.66
2023-04-18T23:00:12.470Z,100164.31
2023-04-18T23:03:14.602Z,100134.72
2023-04-18T23:06:16.519Z,100179.03
2023-04-18T23:09:19.725Z,100180.03
2023-04-18T23:12:22.067Z,100155.09
2023-04-18T23:15:24.202Z,100159.31
2023-04-18T23:18:29.983Z,100164.72
2023-04-18T23:21:32.237Z,100135.50
2023-04-18T23:24:34.097Z,100145.84
2023-04-18T23:27:36.056Z,100158.25
2023-04-18T23:30:37.920Z,100165.47
2023-04-18T23:33:39.676Z,100143.97
2023-04-18T23:36:42.437Z,100162.31
2023-04-18T23:39:44.306Z,100139.59
2023-04-18T23:42:47.182Z,100136.91
2023-04-18T23:45:48.967Z,100130.06
2023-04-18T23:48:51.028Z,100140.28
2023-04-18T23:51:52.777Z,100108.47
2023-04-18T23:54:54.729Z,100137.81
2023-04-18T23:57:56.476Z,100120.53
